Time;durP1;ratioP1;P1;durP2;ratioP2;P2;SDS_P1;SDS_P2;PMS_P1;PMS_P2;Temp;Humidity;BMP_temperature;BMP_pressure;BME280_temperature;BME280_humidity;BME280_pressure;Samples;Min_cycle;Max_cycle;Signal;HPM_P1;HPM_P2
2024/03/21 00:00:19;;;;;;;57.95;55.03;;;;;;;;;;5113596;27;20035;-54
2024/03/21 00:02:47;;;;;;;66.90;63.10;;;;;;;;;;5113251;28;20031;-52
2024/03/21 00:05:17;;;;;;;64.05;60.58;;;;;;;;;;5114153;28;20611;-55
2024/03/21 00:07:47;;;;;;;62.90;59.50;;;;;;;;;;5116838;28;20529;-54
2024/03/21 00:10:13;;;;;;;65.60;62.22;;;;;;;;;;5113973;28;20063;-53
2024/03/21 00:12:39;;;;;;;64.28;61.03;;;;;;;;;;5111175;28;20035;-53
2024/03/21 00:15:05;;;;;;;65.50;62.10;;;;;;;;;;5113711;28;20417;-52
2024/03/21 00:17:31;;;;;;;64.30;60.75;;;;;;;;;;5111227;28;20074;-54
2024/03/21 00:19:56;;;;;;;60.80;57.75;;;;;;;;;;5113365;28;20480;-56
2024/03/21 00:22:22;;;;;;;58.20;55.15;;;;;;;;;;5111301;28;20046;-54
2024/03/21 00:24:48;;;;;;;67.47;64.07;;;;;;;;;;5109795;28;20059;-54
2024/03/21 00:27:13;;;;;;;62.35;59.20;;;;;;;;;;5114581;28;20039;-55
2024/03/21 00:29:38;;;;;;;71.32;67.22;;;;;;;;;;5109630;28;20035;-52
2024/03/21 00:32:04;;;;;;;65.68;62.35;;;;;;;;;;5116218;27;20365;-55
2024/03/21 00:34:30;;;;;;;67.18;63.80;;;;;;;;;;5091313;27;20384;-50
2024/03/21 00:36:56;;;;;;;69.45;65.95;;;;;;;;;;5119557;27;20065;-55
2024/03/21 00:39:23;;;;;;;65.80;62.47;;;;;;;;;;5112227;27;20160;-54
2024/03/21 00:41:48;;;;;;;64.00;60.80;;;;;;;;;;5118779;27;20032;-54
2024/03/21 00:44:14;;;;;;;64.90;61.60;;;;;;;;;;5115987;27;20034;-54
2024/03/21 00:46:39;;;;;;;64.63;61.38;;;;;;;;;;5114980;27;20050;-53
2024/03/21 00:49:06;;;;;;;67.00;63.53;;;;;;;;;;5118438;27;20032;-52
2024/03/21 00:51:31;;;;;;;62.88;59.67;;;;;;;;;;5114820;27;20035;-55
2024/03/21 00:53:58;;;;;;;65.47;62.13;;;;;;;;;;5096740;27;20031;-55
2024/03/21 00:56:23;;;;;;;64.75;61.30;;;;;;;;;;5115171;27;20031;-55
2024/03/21 00:58:49;;;;;;;61.75;58.55;;;;;;;;;;5101024;27;20537;-54
2024/03/21 01:01:14;;;;;;;63.80;60.60;;;;;;;;;;5114855;27;20480;-53
2024/03/21 01:03:41;;;;;;;64.88;61.30;;;;;;;;;;5101799;27;20541;-54
2024/03/21 01:06:07;;;;;;;64.78;61.40;;;;;;;;;;5116860;27;20463;-54
2024/03/21 01:08:32;;;;;;;68.57;63.70;;;;;;;;;;5117901;27;20023;-54
2024/03/21 01:10:58;;;;;;;60.58;57.47;;;;;;;;;;5114627;27;20552;-53
2024/03/21 01:13:23;;;;;;;61.28;58.13;;;;;;;;;;5116816;27;20475;-53
2024/03/21 01:15:48;;;;;;;60.83;57.70;;;;;;;;;;5116417;27;20517;-55
2024/03/21 01:18:14;;;;;;;65.30;61.90;;;;;;;;;;5100197;27;20034;-52
2024/03/21 01:20:41;;;;;;;63.50;60.17;;;;;;;;;;5116324;27;20045;-53
2024/03/21 01:23:07;;;;;;;60.42;57.40;;;;;;;;;;5117144;27;21192;-55
2024/03/21 01:25:32;;;;;;;60.15;57.13;;;;;;;;;;5095849;27;20456;-54
2024/03/21 01:28:00;;;;;;;61.20;58.08;;;;;;;;;;5098106;27;20113;-54
2024/03/21 01:30:28;;;;;;;61.17;58.03;;;;;;;;;;5098561;27;20095;-54
2024/03/21 01:32:54;;;;;;;63.70;60.35;;;;;;;;;;5116715;27;20038;-55
2024/03/21 01:35:19;;;;;;;64.57;61.33;;;;;;;;;;5114351;27;20024;-55
2024/03/21 01:37:44;;;;;;;62.92;59.67;;;;;;;;;;5116217;27;20023;-51
2024/03/21 01:40:11;;;;;;;64.13;60.83;;;;;;;;;;5114451;27;20039;-55
2024/03/21 01:42:37;;;;;;;68.15;64.75;;;;;;;;;;5113729;27;20050;-54
2024/03/21 01:45:05;;;;;;;68.22;64.65;;;;;;;;;;5117449;27;20030;-54
2024/03/21 01:47:31;;;;;;;69.72;66.22;;;;;;;;;;5114800;27;20496;-54
2024/03/21 01:49:57;;;;;;;64.00;60.75;;;;;;;;;;5114402;27;20030;-55
2024/03/21 01:52:23;;;;;;;67.38;64.00;;;;;;;;;;5115052;27;20103;-53
2024/03/21 01:54:49;;;;;;;65.70;62.40;;;;;;;;;;5115825;27;20036;-54
2024/03/21 01:57:15;;;;;;;64.47;61.10;;;;;;;;;;5114763;27;20131;-53
2024/03/21 01:59:40;;;;;;;66.70;63.35;;;;;;;;;;5096890;27;20038;-54
2024/03/21 02:02:06;;;;;;;65.47;62.10;;;;;;;;;;5115337;27;20610;-55
2024/03/21 02:04:32;;;;;;;59.38;56.38;;;;;;;;;;5114495;27;20035;-53
2024/03/21 02:06:57;;;;;;;55.67;52.78;;;;;;;;;;5116421;27;20038;-54
2024/03/21 02:09:25;;;;;;;63.35;60.15;;;;;;;;;;5115904;27;20122;-54
2024/03/21 02:11:51;;;;;;;64.32;60.90;;;;;;;;;;5116897;27;20099;-53
2024/03/21 02:14:19;;;;;;;56.67;53.78;;;;;;;;;;5114311;27;20613;-54
2024/03/21 02:16:45;;;;;;;44.35;42.05;;;;;;;;;;5097408;27;20053;-55
2024/03/21 02:19:10;;;;;;;45.70;43.35;;;;;;;;;;5120093;27;20035;-55
2024/03/21 02:24:19;;;;;;;55.83;52.85;;;;;;;;;;5115694;27;20031;-54
2024/03/21 02:26:45;;;;;;;53.10;50.35;;;;;;;;;;5118911;27;20038;-52
2024/03/21 02:29:10;;;;;;;54.67;51.88;;;;;;;;;;5116787;27;20414;-51
2024/03/21 02:31:35;;;;;;;53.75;51.00;;;;;;;;;;5097507;27;20427;-51
2024/03/21 02:34:01;;;;;;;61.88;58.75;;;;;;;;;;5113555;27;20522;-55
2024/03/21 02:36:26;;;;;;;59.67;56.67;;;;;;;;;;5096402;27;20023;-54
2024/03/21 02:38:51;;;;;;;53.67;50.90;;;;;;;;;;5115830;27;20034;-55
2024/03/21 02:41:16;;;;;;;53.50;50.70;;;;;;;;;;5113781;27;20039;-56
2024/03/21 02:43:43;;;;;;;57.30;54.35;;;;;;;;;;5114581;27;20031;-55
2024/03/21 02:46:08;;;;;;;57.10;54.20;;;;;;;;;;5115457;27;20039;-51
2024/03/21 02:48:36;;;;;;;59.50;56.28;;;;;;;;;;5117264;27;20050;-50
2024/03/21 02:51:02;;;;;;;59.42;56.40;;;;;;;;;;5096171;27;20034;-52
2024/03/21 02:53:27;;;;;;;60.55;57.40;;;;;;;;;;5114815;27;20030;-50
2024/03/21 02:55:53;;;;;;;61.72;58.42;;;;;;;;;;5114539;27;20330;-54
2024/03/21 02:58:18;;;;;;;56.83;53.83;;;;;;;;;;5118915;27;20049;-60
2024/03/21 03:00:43;;;;;;;55.80;52.83;;;;;;;;;;5113149;27;20114;-60
2024/03/21 03:03:09;;;;;;;56.50;53.63;;;;;;;;;;5113118;27;20028;-60
2024/03/21 03:05:41;;;;;;;61.35;58.22;;;;;;;;;;5115477;27;20028;-60
2024/03/21 03:08:07;;;;;;;60.55;57.50;;;;;;;;;;5113521;27;20039;-60
2024/03/21 03:10:32;;;;;;;66.30;62.90;;;;;;;;;;5111876;27;20058;-60
2024/03/21 03:12:57;;;;;;;66.93;63.55;;;;;;;;;;5113417;27;20084;-54
2024/03/21 03:15:23;;;;;;;63.42;60.22;;;;;;;;;;5112974;27;20389;-52
2024/03/21 03:17:48;;;;;;;63.85;60.38;;;;;;;;;;5113145;27;20641;-53
2024/03/21 03:20:13;;;;;;;55.53;52.63;;;;;;;;;;5113730;27;20046;-52
2024/03/21 03:22:39;;;;;;;54.28;51.53;;;;;;;;;;5114172;27;20041;-51
2024/03/21 03:25:04;;;;;;;54.75;51.92;;;;;;;;;;5114313;27;20033;-51
2024/03/21 03:27:30;;;;;;;56.55;53.63;;;;;;;;;;5114937;27;20042;-50
2024/03/21 03:29:55;;;;;;;58.08;55.05;;;;;;;;;;5113394;27;20040;-48
2024/03/21 03:32:22;;;;;;;62.38;59.28;;;;;;;;;;5112999;27;20033;-52
2024/03/21 03:37:32;;;;;;;59.10;56.00;;;;;;;;;;5113668;27;20486;-54
2024/03/21 03:39:57;;;;;;;60.72;57.50;;;;;;;;;;5110023;27;20046;-54
2024/03/21 03:42:22;;;;;;;64.68;61.38;;;;;;;;;;5114369;27;20026;-50
2024/03/21 03:44:48;;;;;;;65.55;62.20;;;;;;;;;;5114586;27;20156;-53
2024/03/21 03:47:13;;;;;;;71.53;67.85;;;;;;;;;;5109733;27;20042;-52
2024/03/21 03:49:40;;;;;;;72.47;68.82;;;;;;;;;;5112054;27;20043;-51
2024/03/21 03:52:05;;;;;;;73.60;69.53;;;;;;;;;;5113425;27;20035;-52
2024/03/21 03:54:31;;;;;;;75.82;71.95;;;;;;;;;;5113511;27;20050;-50
2024/03/21 03:56:56;;;;;;;78.85;74.80;;;;;;;;;;5111482;27;20381;-53
2024/03/21 03:59:21;;;;;;;74.38;70.63;;;;;;;;;;5112622;28;20385;-54
2024/03/21 04:01:47;;;;;;;78.50;74.53;;;;;;;;;;5093613;28;20035;-53
2024/03/21 04:04:13;;;;;;;69.15;65.68;;;;;;;;;;5112368;28;20039;-50
2024/03/21 04:06:40;;;;;;;74.50;70.75;;;;;;;;;;5091372;28;20807;-52
2024/03/21 04:09:06;;;;;;;75.45;71.68;;;;;;;;;;5112704;28;20031;-50
2024/03/21 04:11:32;;;;;;;77.88;73.97;;;;;;;;;;5112815;28;20039;-55
2024/03/21 04:13:58;;;;;;;76.20;72.35;;;;;;;;;;5114968;28;20031;-52
2024/03/21 04:16:23;;;;;;;75.65;71.85;;;;;;;;;;5109888;28;20039;-52
2024/03/21 04:18:49;;;;;;;80.85;76.78;;;;;;;;;;5112919;28;20035;-53
2024/03/21 04:21:14;;;;;;;81.25;77.20;;;;;;;;;;5116618;28;20036;-54
2024/03/21 04:23:39;;;;;;;75.32;71.57;;;;;;;;;;5114649;28;20053;-53
2024/03/21 04:26:05;;;;;;;75.18;70.07;;;;;;;;;;5113654;28;20126;-53
2024/03/21 04:28:30;;;;;;;70.93;67.28;;;;;;;;;;5112357;28;20229;-53
2024/03/21 04:30:55;;;;;;;73.75;69.97;;;;;;;;;;5112738;28;20095;-53
2024/03/21 04:33:21;;;;;;;85.63;81.32;;;;;;;;;;5116228;28;20047;-51
2024/03/21 04:35:46;;;;;;;92.18;87.45;;;;;;;;;;5111963;28;20051;-51
2024/03/21 04:38:11;;;;;;;97.18;92.30;;;;;;;;;;5118713;28;20096;-53
2024/03/21 04:40:37;;;;;;;97.55;92.57;;;;;;;;;;5113849;28;20663;-52
2024/03/21 04:43:02;;;;;;;96.93;92.05;;;;;;;;;;5114358;28;20034;-53
2024/03/21 04:45:28;;;;;;;100.55;95.47;;;;;;;;;;5112843;28;20321;-54
2024/03/21 04:47:54;;;;;;;91.53;86.95;;;;;;;;;;5115149;28;20039;-53
2024/03/21 04:50:20;;;;;;;88.38;84.00;;;;;;;;;;5113192;28;20039;-50
2024/03/21 04:52:46;;;;;;;87.57;83.20;;;;;;;;;;5096434;28;20032;-54
2024/03/21 04:55:12;;;;;;;85.57;81.15;;;;;;;;;;5113456;28;20043;-52
2024/03/21 04:57:38;;;;;;;95.75;90.75;;;;;;;;;;5111492;28;20079;-53
2024/03/21 05:00:05;;;;;;;81.68;77.25;;;;;;;;;;5109931;28;20480;-54
2024/03/21 05:02:30;;;;;;;70.43;66.78;;;;;;;;;;5112040;28;20393;-52
2024/03/21 05:04:56;;;;;;;72.70;69.05;;;;;;;;;;5110141;28;20042;-51
2024/03/21 05:07:21;;;;;;;63.95;60.65;;;;;;;;;;5112932;28;20080;-53
2024/03/21 05:09:46;;;;;;;69.22;65.78;;;;;;;;;;5111225;28;20617;-52
2024/03/21 05:12:13;;;;;;;65.90;62.58;;;;;;;;;;5113212;28;20050;-54
2024/03/21 05:14:38;;;;;;;65.88;62.58;;;;;;;;;;5110893;28;20056;-52
2024/03/21 05:17:04;;;;;;;63.00;59.45;;;;;;;;;;5097869;28;20027;-51
2024/03/21 05:19:29;;;;;;;61.10;57.97;;;;;;;;;;5114320;27;20035;-52
2024/03/21 05:21:58;;;;;;;55.95;53.13;;;;;;;;;;5100898;27;20058;-53
2024/03/21 05:24:24;;;;;;;57.53;54.58;;;;;;;;;;5114823;27;20115;-54
2024/03/21 05:26:49;;;;;;;61.38;58.28;;;;;;;;;;5114925;27;20031;-51
2024/03/21 05:29:15;;;;;;;75.45;71.22;;;;;;;;;;5117184;27;20120;-54
2024/03/21 05:31:40;;;;;;;76.55;72.68;;;;;;;;;;5115067;27;20664;-54
2024/03/21 05:34:05;;;;;;;94.07;89.35;;;;;;;;;;5114675;27;20382;-49
2024/03/21 05:36:31;;;;;;;89.60;85.13;;;;;;;;;;5115501;27;20406;-52
2024/03/21 05:38:56;;;;;;;86.65;82.10;;;;;;;;;;5115969;27;20059;-55
2024/03/21 05:41:21;;;;;;;84.30;80.05;;;;;;;;;;5115728;27;20179;-53
2024/03/21 05:43:47;;;;;;;88.35;83.95;;;;;;;;;;5117126;27;20111;-51
2024/03/21 05:46:12;;;;;;;90.13;85.60;;;;;;;;;;5113866;27;20050;-54
2024/03/21 05:48:39;;;;;;;95.38;90.63;;;;;;;;;;5114750;27;20188;-54
2024/03/21 05:51:04;;;;;;;93.05;88.40;;;;;;;;;;5115116;27;20022;-53
2024/03/21 05:53:30;;;;;;;93.22;88.60;;;;;;;;;;5114750;27;20039;-54
2024/03/21 05:56:05;;;;;;;105.55;100.35;;;;;;;;;;5113350;27;20035;-52
2024/03/21 05:58:32;;;;;;;105.45;100.20;;;;;;;;;;5114770;27;20130;-52
2024/03/21 06:01:04;;;;;;;101.63;96.60;;;;;;;;;;5112166;27;20035;-51
2024/03/21 06:03:30;;;;;;;100.88;95.85;;;;;;;;;;5118216;27;20123;-50
2024/03/21 06:05:56;;;;;;;105.35;100.05;;;;;;;;;;5098066;27;20023;-49
2024/03/21 06:08:21;;;;;;;103.43;98.28;;;;;;;;;;5097769;27;20043;-55
2024/03/21 06:10:46;;;;;;;109.95;104.50;;;;;;;;;;5113016;27;20054;-54
2024/03/21 06:13:12;;;;;;;114.43;108.70;;;;;;;;;;5115433;27;20088;-57
2024/03/21 06:15:37;;;;;;;117.90;112.03;;;;;;;;;;5112714;27;20032;-53
2024/03/21 06:18:03;;;;;;;111.57;105.97;;;;;;;;;;5115223;27;20031;-55
2024/03/21 06:20:28;;;;;;;110.82;105.38;;;;;;;;;;5115223;27;20047;-55
2024/03/21 06:22:53;;;;;;;101.88;96.78;;;;;;;;;;5114136;27;20044;-54
2024/03/21 06:25:19;;;;;;;109.43;103.88;;;;;;;;;;5113428;27;20530;-55
2024/03/21 06:27:47;;;;;;;106.47;101.13;;;;;;;;;;5115639;27;20035;-52
2024/03/21 06:30:13;;;;;;;107.32;101.95;;;;;;;;;;5115238;27;20042;-53
2024/03/21 06:32:38;;;;;;;104.80;99.50;;;;;;;;;;5115731;27;20039;-55
2024/03/21 06:35:04;;;;;;;98.03;93.13;;;;;;;;;;5117123;27;20050;-54
2024/03/21 06:37:31;;;;;;;103.75;98.57;;;;;;;;;;5097890;27;20035;-55
2024/03/21 06:39:58;;;;;;;94.68;89.93;;;;;;;;;;5114092;27;20481;-55
2024/03/21 06:42:23;;;;;;;100.75;95.70;;;;;;;;;;5115478;27;20035;-55
2024/03/21 06:44:48;;;;;;;118.55;112.32;;;;;;;;;;5113181;27;20024;-53
2024/03/21 06:47:14;;;;;;;116.35;110.50;;;;;;;;;;5117451;27;20455;-52
2024/03/21 06:49:41;;;;;;;146.27;138.88;;;;;;;;;;5096878;27;20786;-54
2024/03/21 06:52:06;;;;;;;148.15;140.68;;;;;;;;;;5114758;27;20064;-54
2024/03/21 06:54:32;;;;;;;142.27;135.07;;;;;;;;;;5111413;27;20035;-56
2024/03/21 06:56:57;;;;;;;150.85;143.23;;;;;;;;;;5112855;27;20027;-53
2024/03/21 06:59:23;;;;;;;145.85;138.52;;;;;;;;;;5113729;27;20496;-54
2024/03/21 07:01:48;;;;;;;152.35;144.15;;;;;;;;;;5109588;27;20034;-55
2024/03/21 07:04:13;;;;;;;144.48;137.23;;;;;;;;;;5114031;27;20464;-53
2024/03/21 07:06:39;;;;;;;140.95;133.85;;;;;;;;;;5114821;27;20031;-54
2024/03/21 07:09:04;;;;;;;144.02;136.23;;;;;;;;;;5112523;27;20031;-53
2024/03/21 07:11:29;;;;;;;139.38;132.30;;;;;;;;;;5115981;27;20147;-55
2024/03/21 07:13:57;;;;;;;137.73;130.73;;;;;;;;;;5114597;27;20046;-52
2024/03/21 07:16:23;;;;;;;140.27;132.82;;;;;;;;;;5112433;27;20260;-54
2024/03/21 07:18:49;;;;;;;137.75;130.80;;;;;;;;;;5116847;27;20064;-53
2024/03/21 07:21:14;;;;;;;142.45;135.23;;;;;;;;;;5115170;27;20070;-53
2024/03/21 07:23:39;;;;;;;152.52;144.88;;;;;;;;;;5114679;27;20078;-53
2024/03/21 07:26:06;;;;;;;138.13;131.07;;;;;;;;;;5112067;27;20044;-53
2024/03/21 07:28:32;;;;;;;142.50;135.38;;;;;;;;;;5111706;27;20054;-54
2024/03/21 07:30:58;;;;;;;142.43;135.05;;;;;;;;;;5108341;27;20562;-54
2024/03/21 07:33:24;;;;;;;148.45;140.82;;;;;;;;;;5111064;27;20035;-54
2024/03/21 07:35:57;;;;;;;142.60;135.38;;;;;;;;;;5115239;27;20058;-55
2024/03/21 07:38:23;;;;;;;136.30;129.43;;;;;;;;;;5093280;27;20067;-55
2024/03/21 07:40:59;;;;;;;124.75;118.47;;;;;;;;;;5111473;27;20115;-54
2024/03/21 07:43:25;;;;;;;128.30;121.80;;;;;;;;;;5112219;27;20019;-54
2024/03/21 07:45:50;;;;;;;101.63;96.45;;;;;;;;;;5109424;27;20389;-54
2024/03/21 07:48:16;;;;;;;90.85;86.25;;;;;;;;;;5094913;27;20109;-53
2024/03/21 07:50:41;;;;;;;87.72;83.13;;;;;;;;;;5116446;27;20059;-54
2024/03/21 07:53:07;;;;;;;91.82;87.07;;;;;;;;;;5110951;27;20524;-53
2024/03/21 07:55:33;;;;;;;98.85;93.88;;;;;;;;;;5115425;27;20035;-55
2024/03/21 07:58:00;;;;;;;97.88;93.03;;;;;;;;;;5095259;28;20035;-55
2024/03/21 08:00:28;;;;;;;98.18;93.13;;;;;;;;;;5111614;27;20035;-54
2024/03/21 08:02:54;;;;;;;128.10;121.40;;;;;;;;;;5096118;28;20052;-55
2024/03/21 08:05:19;;;;;;;120.47;113.32;;;;;;;;;;5114800;28;20035;-55
2024/03/21 08:07:45;;;;;;;104.22;99.03;;;;;;;;;;5112534;28;20042;-54
2024/03/21 08:10:11;;;;;;;110.55;104.97;;;;;;;;;;5110962;28;20038;-56
2024/03/21 08:12:36;;;;;;;101.20;95.97;;;;;;;;;;5112141;28;20039;-55
2024/03/21 08:15:01;;;;;;;101.03;95.72;;;;;;;;;;5111210;28;20031;-51
2024/03/21 08:17:27;;;;;;;106.97;101.53;;;;;;;;;;5114367;28;20058;-56
2024/03/21 08:19:54;;;;;;;69.63;66.03;;;;;;;;;;5111958;28;20049;-56
2024/03/21 08:22:20;;;;;;;62.38;59.20;;;;;;;;;;5093805;28;20046;-52
2024/03/21 08:24:45;;;;;;;37.63;34.97;;;;;;;;;;5114146;28;20035;-52
2024/03/21 08:27:11;;;;;;;30.50;28.80;;;;;;;;;;5109724;28;20040;-52
2024/03/21 08:29:36;;;;;;;28.95;27.38;;;;;;;;;;5095074;28;20023;-54
2024/03/21 08:32:07;;;;;;;30.77;28.98;;;;;;;;;;5113493;28;20082;-54
2024/03/21 08:34:33;;;;;;;32.10;30.20;;;;;;;;;;5114338;28;20036;-54
2024/03/21 08:36:58;;;;;;;32.85;31.08;;;;;;;;;;5113932;28;20046;-53
2024/03/21 08:39:23;;;;;;;35.08;33.20;;;;;;;;;;5093724;28;20408;-51
2024/03/21 08:41:49;;;;;;;39.78;37.50;;;;;;;;;;5114163;28;20038;-55
2024/03/21 08:44:14;;;;;;;36.42;34.40;;;;;;;;;;5112882;28;20104;-51
2024/03/21 08:46:39;;;;;;;41.53;39.33;;;;;;;;;;5110969;28;20035;-54
2024/03/21 08:49:04;;;;;;;41.85;39.45;;;;;;;;;;5111331;28;20139;-51
2024/03/21 08:51:30;;;;;;;48.40;45.65;;;;;;;;;;5112315;28;20092;-55
2024/03/21 08:53:55;;;;;;;55.97;52.95;;;;;;;;;;5096659;27;20588;-54
2024/03/21 08:56:21;;;;;;;64.07;60.53;;;;;;;;;;5116242;27;20031;-53
2024/03/21 08:58:46;;;;;;;60.55;57.45;;;;;;;;;;5116395;27;20038;-51
2024/03/21 09:01:11;;;;;;;66.82;63.38;;;;;;;;;;5112593;27;20092;-56
2024/03/21 09:03:37;;;;;;;87.18;82.78;;;;;;;;;;5114349;27;20149;-54
2024/03/21 09:06:02;;;;;;;82.05;77.72;;;;;;;;;;5097520;27;20387;-55
2024/03/21 09:08:28;;;;;;;94.65;89.85;;;;;;;;;;5115794;27;20051;-54
2024/03/21 09:11:02;;;;;;;97.30;92.32;;;;;;;;;;5113971;27;20031;-55
2024/03/21 09:13:28;;;;;;;90.25;85.57;;;;;;;;;;5116543;27;20354;-54
2024/03/21 09:15:55;;;;;;;114.60;108.60;;;;;;;;;;5112689;27;20024;-53
2024/03/21 09:18:21;;;;;;;127.78;120.80;;;;;;;;;;5115161;27;20081;-54
2024/03/21 09:20:46;;;;;;;147.32;139.88;;;;;;;;;;5116296;27;20672;-54
2024/03/21 09:23:11;;;;;;;201.35;191.25;;;;;;;;;;5116510;27;20819;-54
2024/03/21 09:25:37;;;;;;;208.90;198.38;;;;;;;;;;5117089;27;20035;-56
2024/03/21 09:28:02;;;;;;;222.43;211.07;;;;;;;;;;5115089;27;20085;-56
2024/03/21 09:30:28;;;;;;;204.75;194.38;;;;;;;;;;5114601;27;20028;-56
2024/03/21 09:32:53;;;;;;;190.45;180.90;;;;;;;;;;5097089;27;20035;-56
2024/03/21 09:35:18;;;;;;;162.63;154.00;;;;;;;;;;5116390;27;20088;-55
2024/03/21 09:37:44;;;;;;;124.05;117.50;;;;;;;;;;5118229;27;20047;-56
2024/03/21 09:40:12;;;;;;;128.65;121.68;;;;;;;;;;5115520;27;21059;-56
2024/03/21 09:42:38;;;;;;;115.38;108.97;;;;;;;;;;5119884;27;20414;-54
2024/03/21 09:45:09;;;;;;;91.18;86.18;;;;;;;;;;5116960;27;20122;-54
2024/03/21 09:47:36;;;;;;;85.50;80.57;;;;;;;;;;5117326;27;20032;-57
2024/03/21 09:50:02;;;;;;;54.65;51.05;;;;;;;;;;5116675;27;20031;-56
2024/03/21 09:52:30;;;;;;;50.28;46.85;;;;;;;;;;5096884;27;20049;-56
2024/03/21 09:54:56;;;;;;;44.42;41.50;;;;;;;;;;5118177;27;20036;-55
2024/03/21 09:57:21;;;;;;;43.58;40.58;;;;;;;;;;5118218;27;20035;-56
2024/03/21 09:59:47;;;;;;;42.72;38.47;;;;;;;;;;5114538;27;20038;-55
2024/03/21 10:02:12;;;;;;;50.75;46.90;;;;;;;;;;5115625;27;20023;-56
2024/03/21 10:04:49;;;;;;;61.33;57.75;;;;;;;;;;5116209;27;20035;-56
2024/03/21 10:07:22;;;;;;;75.95;71.80;;;;;;;;;;5113810;27;20471;-56
2024/03/21 10:09:58;;;;;;;62.58;58.80;;;;;;;;;;5112405;27;20039;-55
2024/03/21 10:12:24;;;;;;;128.38;121.65;;;;;;;;;;5114546;27;20050;-56
2024/03/21 10:14:53;;;;;;;117.20;110.90;;;;;;;;;;5095935;27;20720;-56
2024/03/21 10:17:19;;;;;;;89.70;84.60;;;;;;;;;;5115516;27;20043;-56
2024/03/21 10:19:44;;;;;;;116.25;109.03;;;;;;;;;;5115092;27;20179;-55
2024/03/21 10:22:16;;;;;;;137.95;130.73;;;;;;;;;;5115574;27;20126;-56
2024/03/21 10:24:41;;;;;;;131.35;124.43;;;;;;;;;;5114448;27;20504;-57
2024/03/21 10:27:13;;;;;;;144.25;136.50;;;;;;;;;;5118075;27;20045;-56
2024/03/21 10:29:38;;;;;;;83.47;78.50;;;;;;;;;;5099429;27;20039;-57
2024/03/21 10:32:04;;;;;;;99.32;94.13;;;;;;;;;;5114776;27;20031;-56
2024/03/21 10:34:30;;;;;;;91.00;86.05;;;;;;;;;;5096647;27;20111;-57
2024/03/21 10:36:55;;;;;;;81.63;77.25;;;;;;;;;;5114857;27;20518;-57
2024/03/21 10:39:20;;;;;;;65.68;62.08;;;;;;;;;;5113452;27;20039;-57
2024/03/21 10:41:47;;;;;;;59.67;56.47;;;;;;;;;;5113164;27;20019;-55
2024/03/21 10:44:17;;;;;;;47.30;44.50;;;;;;;;;;5096803;27;20036;-55
2024/03/21 10:46:42;;;;;;;59.05;55.67;;;;;;;;;;5113452;27;20528;-54
2024/03/21 10:49:12;;;;;;;64.80;61.25;;;;;;;;;;5115486;27;20035;-56
2024/03/21 10:51:44;;;;;;;48.13;45.53;;;;;;;;;;5115773;27;20031;-54
2024/03/21 10:54:13;;;;;;;42.17;39.78;;;;;;;;;;5113361;27;20122;-56
2024/03/21 10:56:40;;;;;;;54.50;51.42;;;;;;;;;;5115895;27;20035;-56
2024/03/21 10:59:05;;;;;;;52.83;50.03;;;;;;;;;;5113709;27;20035;-56
2024/03/21 11:01:35;;;;;;;51.88;49.08;;;;;;;;;;5115491;27;20390;-54
2024/03/21 11:04:05;;;;;;;44.75;42.15;;;;;;;;;;5118646;27;20065;-56
2024/03/21 11:06:33;;;;;;;40.38;37.85;;;;;;;;;;5117956;27;20027;-57
2024/03/21 11:09:00;;;;;;;38.53;36.42;;;;;;;;;;5116483;27;20465;-56
2024/03/21 11:11:26;;;;;;;38.65;36.45;;;;;;;;;;5114061;27;20039;-55
2024/03/21 11:13:52;;;;;;;49.05;46.35;;;;;;;;;;5115717;27;20035;-55
2024/03/21 11:16:18;;;;;;;37.20;35.20;;;;;;;;;;5113320;27;20027;-56
2024/03/21 11:18:43;;;;;;;43.58;41.17;;;;;;;;;;5116603;27;20031;-56
2024/03/21 11:21:13;;;;;;;55.15;52.25;;;;;;;;;;5113700;27;20404;-54
2024/03/21 11:23:39;;;;;;;56.70;53.70;;;;;;;;;;5114208;27;20030;-56
2024/03/21 11:26:07;;;;;;;67.70;64.20;;;;;;;;;;5110521;27;20023;-56
2024/03/21 11:28:33;;;;;;;58.28;54.97;;;;;;;;;;5113314;27;20508;-55
2024/03/21 11:30:59;;;;;;;66.65;63.17;;;;;;;;;;5113376;27;20076;-55
2024/03/21 11:33:24;;;;;;;40.53;38.33;;;;;;;;;;5112454;27;20119;-56
2024/03/21 11:35:49;;;;;;;40.50;38.15;;;;;;;;;;5113430;27;20439;-56
2024/03/21 11:38:15;;;;;;;47.30;44.70;;;;;;;;;;5112091;27;20043;-56
2024/03/21 11:40:40;;;;;;;59.65;56.33;;;;;;;;;;5094473;27;20031;-56
2024/03/21 11:43:07;;;;;;;62.05;58.78;;;;;;;;;;5112257;27;20024;-55
2024/03/21 11:45:36;;;;;;;61.42;58.15;;;;;;;;;;5091964;27;20039;-57
2024/03/21 11:48:10;;;;;;;54.25;51.10;;;;;;;;;;5114710;27;20027;-57
2024/03/21 11:50:36;;;;;;;56.00;53.10;;;;;;;;;;5098277;28;20023;-57
2024/03/21 11:53:02;;;;;;;55.65;52.75;;;;;;;;;;5114161;27;20038;-57
2024/03/21 11:55:28;;;;;;;55.33;52.38;;;;;;;;;;5111551;27;20536;-56
2024/03/21 11:57:55;;;;;;;57.17;54.08;;;;;;;;;;5113516;27;20023;-54
2024/03/21 12:00:21;;;;;;;48.47;45.80;;;;;;;;;;5111969;27;20023;-56
2024/03/21 12:02:48;;;;;;;52.67;49.97;;;;;;;;;;5114042;27;20123;-55
2024/03/21 12:05:14;;;;;;;58.58;55.58;;;;;;;;;;5113210;27;20091;-56
2024/03/21 12:07:41;;;;;;;61.90;58.75;;;;;;;;;;5114857;28;20121;-57
2024/03/21 12:10:11;;;;;;;63.20;59.92;;;;;;;;;;5115046;28;20027;-56
2024/03/21 12:12:36;;;;;;;58.47;55.47;;;;;;;;;;5115225;28;20035;-56
2024/03/21 12:15:03;;;;;;;59.28;56.10;;;;;;;;;;5113416;28;20031;-56
2024/03/21 12:17:30;;;;;;;57.65;54.63;;;;;;;;;;5112554;28;21059;-55
2024/03/21 12:19:55;;;;;;;61.83;58.67;;;;;;;;;;5118060;28;20035;-56
2024/03/21 12:22:21;;;;;;;63.65;60.35;;;;;;;;;;5112496;28;20041;-56
2024/03/21 12:24:47;;;;;;;63.25;60.05;;;;;;;;;;5097404;28;20054;-54
2024/03/21 12:27:12;;;;;;;58.20;54.95;;;;;;;;;;5113748;27;20027;-56
2024/03/21 12:29:38;;;;;;;52.25;49.58;;;;;;;;;;5116159;27;20043;-56
2024/03/21 12:32:04;;;;;;;49.75;47.05;;;;;;;;;;5093464;27;21176;-57
2024/03/21 12:34:29;;;;;;;55.10;52.30;;;;;;;;;;5114905;27;20024;-55
2024/03/21 12:36:54;;;;;;;50.78;48.17;;;;;;;;;;5118835;27;20043;-57
2024/03/21 12:39:20;;;;;;;47.33;44.83;;;;;;;;;;5117286;27;20035;-55
2024/03/21 12:41:46;;;;;;;58.70;55.70;;;;;;;;;;5118652;27;20051;-57
2024/03/21 12:44:13;;;;;;;58.80;55.78;;;;;;;;;;5117475;27;20049;-55
2024/03/21 12:46:39;;;;;;;54.88;51.97;;;;;;;;;;5114366;27;20035;-56
2024/03/21 12:49:05;;;;;;;48.80;46.17;;;;;;;;;;5118598;27;20433;-57
2024/03/21 12:51:30;;;;;;;50.45;47.85;;;;;;;;;;5117090;27;20028;-56
2024/03/21 12:53:55;;;;;;;43.13;40.92;;;;;;;;;;5117770;27;20050;-56
2024/03/21 12:56:21;;;;;;;54.40;51.60;;;;;;;;;;5099182;27;20039;-54
2024/03/21 12:58:46;;;;;;;57.28;54.38;;;;;;;;;;5115529;27;20028;-56
2024/03/21 13:01:11;;;;;;;51.60;49.00;;;;;;;;;;5114162;27;20111;-55
2024/03/21 13:03:37;;;;;;;43.05;40.85;;;;;;;;;;5098549;27;20039;-56
2024/03/21 13:06:02;;;;;;;41.53;39.30;;;;;;;;;;5116541;27;20483;-56
2024/03/21 13:08:28;;;;;;;56.92;53.97;;;;;;;;;;5116832;27;20035;-55
2024/03/21 13:10:53;;;;;;;72.78;68.95;;;;;;;;;;5116174;27;20055;-55
2024/03/21 13:13:18;;;;;;;119.53;113.50;;;;;;;;;;5097802;27;20384;-55
2024/03/21 13:15:44;;;;;;;79.20;75.22;;;;;;;;;;5116300;27;20507;-54
2024/03/21 13:18:09;;;;;;;105.97;100.68;;;;;;;;;;5114587;27;21297;-56
2024/03/21 13:20:34;;;;;;;53.55;50.65;;;;;;;;;;5118135;27;20480;-52
2024/03/21 13:23:00;;;;;;;123.90;117.65;;;;;;;;;;5117400;27;20110;-55
2024/03/21 13:25:26;;;;;;;116.07;110.18;;;;;;;;;;5116657;27;20039;-53
2024/03/21 13:27:51;;;;;;;71.00;67.43;;;;;;;;;;5117251;27;20510;-53
2024/03/21 13:30:17;;;;;;;99.68;94.55;;;;;;;;;;5115139;27;20040;-54
2024/03/21 13:32:49;;;;;;;54.10;51.33;;;;;;;;;;5105904;27;20043;-56
2024/03/21 13:35:16;;;;;;;81.13;76.97;;;;;;;;;;5118071;27;20360;-55
2024/03/21 13:37:45;;;;;;;142.90;135.75;;;;;;;;;;5114738;27;20050;-58
2024/03/21 13:40:10;;;;;;;75.80;71.95;;;;;;;;;;5112701;27;20042;-56
2024/03/21 13:42:37;;;;;;;124.80;118.47;;;;;;;;;;5113463;27;20072;-53
2024/03/21 13:45:03;;;;;;;75.38;71.53;;;;;;;;;;5114188;27;20034;-53
2024/03/21 13:47:28;;;;;;;65.85;62.45;;;;;;;;;;5115700;27;20508;-55
2024/03/21 13:49:55;;;;;;;131.00;124.25;;;;;;;;;;5117907;27;20042;-57
2024/03/21 13:52:25;;;;;;;121.25;115.20;;;;;;;;;;5114884;27;20038;-56
2024/03/21 13:54:51;;;;;;;130.65;124.05;;;;;;;;;;5116394;27;20046;-55
2024/03/21 13:57:17;;;;;;;121.47;115.40;;;;;;;;;;5117651;27;20169;-57
2024/03/21 13:59:42;;;;;;;94.75;90.03;;;;;;;;;;5115916;27;20109;-56
2024/03/21 14:02:08;;;;;;;72.72;68.60;;;;;;;;;;5115573;27;20031;-53
2024/03/21 14:04:34;;;;;;;88.85;84.35;;;;;;;;;;5113428;27;20475;-55
2024/03/21 14:06:59;;;;;;;67.10;63.65;;;;;;;;;;5116919;27;20031;-56
2024/03/21 14:09:24;;;;;;;92.53;87.82;;;;;;;;;;5114009;27;20085;-55